Private Wetterstation Wechselburg
Wetterdaten: Dienstag, 07.10.2014
Datum Zeit Temp. +2m Bodentemp. Temp.+5cm Temp. Wind Windchill X Diff Temp. Feuchte +2m Feuchte +5cm Sonnenschein Luftdruck Regen Wind Richtung Richtung Sonnenschein UV Taupunkt Windchill Windben
07.10.2014 00:00 6,0 C 26,0 C 7,5 C 6,4 C 6,4 C 0,4 C 89 % 90 % 0 % 1013,7 hPa 0,0 l/m 0,0 km/h (0 Bft) O 90 0 min 0,0 UV-I 4,3 C 6,4 C 0,0 km/h (0 Bft)
07.10.2014 00:05 6,0 C 26,0 C 7,5 C 6,4 C 6,4 C 0,4 C 89 % 90 % 0 % 1013,7 hPa 0,0 l/m 0,0 km/h (0 Bft) SW 225 0 min 0,0 UV-I 4,3 C 6,4 C 0,0 km/h (0 Bft)
07.10.2014 00:10 6,0 C 26,0 C 7,5 C 6,3 C 6,3 C 0,3 C 89 % 90 % 0 % 1014,2 hPa 0,0 l/m 0,0 km/h (0 Bft) S 180 0 min 0,0 UV-I 4,3 C 6,3 C 0,0 km/h (0 Bft)
07.10.2014 00:15 6,0 C 25,9 C 7,5 C 6,2 C 6,2 C 0,2 C 89 % 90 % 0 % 1014,2 hPa 0,0 l/m 0,0 km/h (0 Bft) W-SW 247 0 min 0,0 UV-I 4,3 C 6,2 C 0,0 km/h (0 Bft)
07.10.2014 00:20 5,9 C 26,0 C 7,5 C 6,1 C 6,1 C 0,2 C 89 % 90 % 0 % 1014,2 hPa 0,0 l/m 0,0 km/h (0 Bft) O 90 0 min 0,0 UV-I 4,2 C 6,1 C 0,0 km/h (0 Bft)
07.10.2014 00:25 5,9 C 26,0 C 7,5 C 6,2 C 6,2 C 0,3 C 89 % 90 % 0 % 1014,2 hPa 0,0 l/m 0,0 km/h (0 Bft) S-SW 202 0 min 0,0 UV-I 4,2 C 6,2 C 0,0 km/h (0 Bft)
07.10.2014 00:30 5,9 C 25,9 C 7,4 C 6,1 C 6,1 C 0,2 C 89 % 90 % 0 % 1013,4 hPa 0,0 l/m 0,0 km/h (0 Bft) SW 225 0 min 0,0 UV-I 4,2 C 6,1 C 0,0 km/h (0 Bft)
07.10.2014 00:35 5,8 C 25,9 C 7,3 C 5,9 C 5,9 C 0,1 C 89 % 90 % 0 % 1013,4 hPa 0,0 l/m 0,0 km/h (0 Bft) S 180 0 min 0,0 UV-I 4,1 C 5,9 C 0,0 km/h (0 Bft)
07.10.2014 00:41 5,7 C 25,9 C 7,3 C 6,0 C 6,0 C 0,3 C 89 % 90 % 0 % 1013,4 hPa 0,0 l/m 0,0 km/h (0 Bft) N 0 0 min 0,0 UV-I 4,0 C 6,0 C 0,0 km/h (0 Bft)
07.10.2014 00:45 5,7 C 25,9 C 7,2 C 6,0 C 6,0 C 0,3 C 89 % 90 % 0 % 1013,4 hPa 0,0 l/m 0,0 km/h (0 Bft) W 270 0 min 0,0 UV-I 4,0 C 6,0 C 0,0 km/h (0 Bft)
07.10.2014 00:50 5,6 C 25,9 C 7,2 C 5,9 C 5,9 C 0,3 C 89 % 90 % 0 % 1013,6 hPa 0,0 l/m 0,0 km/h (0 Bft) SO 135 0 min 0,0 UV-I 3,9 C 5,9 C 0,0 km/h (0 Bft)
07.10.2014 00:55 5,6 C 25,9 C 7,2 C 5,9 C 5,9 C 0,3 C 89 % 90 % 0 % 1013,6 hPa 0,0 l/m 0,0 km/h (0 Bft) O-NO 67 0 min 0,0 UV-I 3,9 C 5,9 C 0,0 km/h (0 Bft)
07.10.2014 01:00 5,7 C 25,9 C 7,2 C 6,0 C 6,0 C 0,3 C 89 % 90 % 0 % 1013,6 hPa 0,0 l/m 0,0 km/h (0 Bft) S-SO 157 0 min 0,0 UV-I 4,0 C 6,0 C 0,0 km/h (0 Bft)
07.10.2014 01:05 5,6 C 25,9 C 7,2 C 6,0 C 6,0 C 0,4 C 89 % 90 % 0 % 1013,6 hPa 0,0 l/m 0,0 km/h (0 Bft) SW 225 0 min 0,0 UV-I 3,9 C 6,0 C 0,0 km/h (0 Bft)
07.10.2014 01:10 5,5 C 25,9 C 7,2 C 5,8 C 5,8 C 0,3 C 89 % 90 % 0 % 1013,9 hPa 0,0 l/m 0,0 km/h (0 Bft) SW 225 0 min 0,0 UV-I 3,8 C 5,8 C 0,0 km/h (0 Bft)
07.10.2014 01:15 5,5 C 25,9 C 7,1 C 5,8 C 5,8 C 0,3 C 89 % 90 % 0 % 1013,9 hPa 0,0 l/m 0,0 km/h (0 Bft) NO 45 0 min 0,0 UV-I 3,8 C 5,8 C 0,0 km/h (0 Bft)
07.10.2014 01:20 5,5 C 25,8 C 7,1 C 5,8 C 5,8 C 0,3 C 89 % 90 % 0 % 1013,9 hPa 0,0 l/m 0,0 km/h (0 Bft) NO 45 0 min 0,0 UV-I 3,8 C 5,8 C 0,0 km/h (0 Bft)
07.10.2014 01:25 5,5 C 25,8 C 7,1 C 5,8 C 5,8 C 0,3 C 89 % 90 % 0 % 1013,9 hPa 0,0 l/m 0,0 km/h (0 Bft) NO 45 0 min 0,0 UV-I 3,8 C 5,8 C 0,0 km/h (0 Bft)
07.10.2014 01:30 5,5 C 25,8 C 7,1 C 5,8 C 5,8 C 0,3 C 89 % 90 % 0 % 1013,1 hPa 0,0 l/m 0,0 km/h (0 Bft) NO 45 0 min 0,0 UV-I 3,8 C 5,8 C 0,0 km/h (0 Bft)
07.10.2014 01:35 5,4 C 25,8 C 7,1 C 5,8 C 5,8 C 0,4 C 89 % 90 % 0 % 1013,1 hPa 0,0 l/m 0,0 km/h (0 Bft) SW 225 0 min 0,0 UV-I 3,7 C 5,8 C 0,0 km/h (0 Bft)
07.10.2014 01:40 5,3 C 25,8 C 7,0 C 5,8 C 5,8 C 0,5 C 89 % 90 % 0 % 1013,1 hPa 0,0 l/m 0,0 km/h (0 Bft) W-NW 292 0 min 0,0 UV-I 3,6 C 5,8 C 0,0 km/h (0 Bft)
07.10.2014 01:45 5,3 C 25,8 C 7,1 C 5,8 C 5,8 C 0,5 C 89 % 90 % 0 % 1013,1 hPa 0,0 l/m 0,0 km/h (0 Bft) W-NW 292 0 min 0,0 UV-I 3,6 C 5,8 C 0,0 km/h (0 Bft)
07.10.2014 01:50 5,3 C 25,7 C 7,1 C 5,7 C 5,7 C 0,4 C 89 % 90 % 0 % 1013,0 hPa 0,0 l/m 0,0 km/h (0 Bft) S 180 0 min 0,0 UV-I 3,6 C 5,7 C 0,0 km/h (0 Bft)
07.10.2014 01:55 5,3 C 25,8 C 7,1 C 5,8 C 5,8 C 0,5 C 89 % 90 % 0 % 1013,0 hPa 0,0 l/m 0,0 km/h (0 Bft) SW 225 0 min 0,0 UV-I 3,6 C 5,8 C 0,0 km/h (0 Bft)
07.10.2014 02:00 5,2 C 25,8 C 7,0 C 5,7 C 5,7 C 0,5 C 89 % 90 % 0 % 1013,0 hPa 0,0 l/m 0,0 km/h (0 Bft) N-NO 22 0 min 0,0 UV-I 3,5 C 5,7 C 0,0 km/h (0 Bft)
07.10.2014 02:05 5,2 C 25,8 C 6,9 C 5,7 C 5,7 C 0,5 C 89 % 90 % 0 % 1013,0 hPa 0,0 l/m 0,0 km/h (0 Bft) W-SW 247 0 min 0,0 UV-I 3,5 C 5,7 C 0,0 km/h (0 Bft)
07.10.2014 02:10 5,3 C 25,8 C 6,9 C 5,8 C 5,8 C 0,5 C 90 % 90 % 0 % 1013,6 hPa 0,0 l/m 0,0 km/h (0 Bft) NO 45 0 min 0,0 UV-I 3,8 C 5,8 C 0,0 km/h (0 Bft)
07.10.2014 02:15 5,5 C 25,8 C 7,0 C 5,9 C 5,9 C 0,4 C 90 % 90 % 0 % 1013,6 hPa 0,0 l/m 0,0 km/h (0 Bft) NO 45 0 min 0,0 UV-I 4,0 C 5,9 C 0,0 km/h (0 Bft)
07.10.2014 02:20 5,4 C 25,7 C 7,1 C 5,9 C 5,9 C 0,5 C 90 % 90 % 0 % 1013,6 hPa 0,0 l/m 0,0 km/h (0 Bft) SW 225 0 min 0,0 UV-I 3,9 C 5,9 C 0,0 km/h (0 Bft)
07.10.2014 02:25 5,3 C 25,7 C 7,0 C 5,8 C 5,8 C 0,5 C 90 % 90 % 0 % 1013,6 hPa 0,0 l/m 0,0 km/h (0 Bft) N-NW 337 0 min 0,0 UV-I 3,8 C 5,8 C 0,0 km/h (0 Bft)
07.10.2014 02:30 5,3 C 25,7 C 6,9 C 5,8 C 5,8 C 0,5 C 90 % 90 % 0 % 1012,6 hPa 0,0 l/m 0,0 km/h (0 Bft) W 270 0 min 0,0 UV-I 3,8 C 5,8 C 0,0 km/h (0 Bft)
07.10.2014 02:35 5,2 C 25,7 C 7,0 C 5,8 C 5,8 C 0,6 C 90 % 90 % 0 % 1012,6 hPa 0,0 l/m 0,0 km/h (0 Bft) W-SW 247 0 min 0,0 UV-I 3,7 C 5,8 C 0,0 km/h (0 Bft)
07.10.2014 02:40 5,2 C 25,7 C 7,0 C 5,8 C 5,8 C 0,6 C 90 % 90 % 0 % 1012,6 hPa 0,0 l/m 0,0 km/h (0 Bft) O 90 0 min 0,0 UV-I 3,7 C 5,8 C 1,6 km/h (1 Bft)
07.10.2014 02:45 5,3 C 25,7 C 7,0 C 6,0 C 6,0 C 0,7 C 90 % 90 % 0 % 1012,6 hPa 0,0 l/m 0,0 km/h (0 Bft) W 270 0 min 0,0 UV-I 3,8 C 6,0 C 0,0 km/h (0 Bft)
07.10.2014 02:50 5,4 C 25,7 C 7,1 C 6,2 C 6,2 C 0,8 C 90 % 90 % 0 % 1012,8 hPa 0,0 l/m 0,2 km/h (0 Bft) N-NW 337 0 min 0,0 UV-I 3,9 C 6,2 C 0,0 km/h (0 Bft)
07.10.2014 02:55 5,6 C 25,7 C 7,1 C 6,4 C 6,4 C 0,8 C 90 % 90 % 0 % 1012,8 hPa 0,0 l/m 0,0 km/h (0 Bft) O-NO 67 0 min 0,0 UV-I 4,1 C 6,4 C 1,8 km/h (1 Bft)
07.10.2014 03:00 5,7 C 25,7 C 7,2 C 6,6 C 6,6 C 0,9 C 90 % 90 % 0 % 1012,8 hPa 0,0 l/m 0,2 km/h (0 Bft) S 180 0 min 0,0 UV-I 4,2 C 6,6 C 0,0 km/h (0 Bft)
07.10.2014 03:05 5,7 C 25,7 C 7,3 C 6,6 C 6,6 C 0,9 C 90 % 91 % 0 % 1012,8 hPa 0,0 l/m 0,2 km/h (0 Bft) S 180 0 min 0,0 UV-I 4,2 C 6,6 C 0,0 km/h (0 Bft)
07.10.2014 03:10 5,9 C 25,7 C 7,2 C 6,8 C 6,8 C 0,9 C 90 % 90 % 0 % 1012,7 hPa 0,0 l/m 0,0 km/h (0 Bft) O-NO 67 0 min 0,0 UV-I 4,4 C 6,8 C 0,0 km/h (0 Bft)
07.10.2014 03:15 6,1 C 25,7 C 7,3 C 7,2 C 7,2 C 1,1 C 91 % 91 % 0 % 1012,7 hPa 0,0 l/m 0,0 km/h (0 Bft) O-NO 67 0 min 0,0 UV-I 4,7 C 7,2 C 0,0 km/h (0 Bft)
07.10.2014 03:20 6,2 C 25,7 C 7,5 C 7,6 C 7,6 C 1,4 C 91 % 91 % 0 % 1012,7 hPa 0,0 l/m 0,0 km/h (0 Bft) W-SW 247 0 min 0,0 UV-I 4,8 C 7,6 C 0,0 km/h (0 Bft)
07.10.2014 03:25 6,3 C 25,7 C 7,5 C 7,7 C 7,7 C 1,4 C 91 % 91 % 0 % 1012,7 hPa 0,0 l/m 0,0 km/h (0 Bft) O-NO 67 0 min 0,0 UV-I 4,9 C 7,7 C 1,9 km/h (1 Bft)
07.10.2014 03:30 6,5 C 25,6 C 7,6 C 7,9 C 7,9 C 1,4 C 91 % 91 % 0 % 1012,8 hPa 0,0 l/m 0,0 km/h (0 Bft) W-NW 292 0 min 0,0 UV-I 5,1 C 7,9 C 0,0 km/h (0 Bft)
07.10.2014 03:35 6,4 C 25,6 C 7,6 C 7,9 C 7,9 C 1,5 C 91 % 91 % 0 % 1012,8 hPa 0,0 l/m 0,0 km/h (0 Bft) N-NW 337 0 min 0,0 UV-I 5,0 C 7,9 C 0,0 km/h (0 Bft)
07.10.2014 03:41 6,5 C 25,6 C 7,6 C 7,9 C 7,9 C 1,4 C 91 % 91 % 0 % 1012,8 hPa 0,0 l/m 0,0 km/h (0 Bft) N 0 0 min 0,0 UV-I 5,1 C 7,9 C 0,0 km/h (0 Bft)
07.10.2014 03:45 6,5 C 25,6 C 7,7 C 7,9 C 7,9 C 1,4 C 91 % 91 % 0 % 1012,8 hPa 0,0 l/m 0,0 km/h (0 Bft) W 270 0 min 0,0 UV-I 5,1 C 7,9 C 0,0 km/h (0 Bft)
07.10.2014 03:50 6,4 C 25,6 C 7,9 C 7,9 C 7,9 C 1,5 C 91 % 91 % 0 % 1012,4 hPa 0,0 l/m 0,0 km/h (0 Bft) O-NO 67 0 min 0,0 UV-I 5,0 C 7,9 C 0,0 km/h (0 Bft)
07.10.2014 03:55 6,5 C 25,6 C 7,8 C 8,0 C 8,0 C 1,5 C 91 % 91 % 0 % 1012,4 hPa 0,0 l/m 0,0 km/h (0 Bft) S-SO 157 0 min 0,0 UV-I 5,1 C 8,0 C 0,0 km/h (0 Bft)
07.10.2014 04:00 6,7 C 25,6 C 8,0 C 8,1 C 8,1 C 1,4 C 91 % 91 % 0 % 1012,4 hPa 0,0 l/m 0,0 km/h (0 Bft) S-SO 157 0 min 0,0 UV-I 5,3 C 8,1 C 0,0 km/h (0 Bft)
07.10.2014 04:05 6,7 C 25,6 C 7,8 C 8,0 C 8,0 C 1,3 C 91 % 91 % 0 % 1012,4 hPa 0,0 l/m 0,0 km/h (0 Bft) S 180 0 min 0,0 UV-I 5,3 C 8,0 C 0,0 km/h (0 Bft)
07.10.2014 04:10 6,5 C 25,6 C 7,7 C 7,8 C 7,8 C 1,3 C 91 % 91 % 0 % 1012,6 hPa 0,0 l/m 0,0 km/h (0 Bft) O-NO 67 0 min 0,0 UV-I 5,1 C 7,8 C 0,0 km/h (0 Bft)
07.10.2014 04:15 6,7 C 25,6 C 7,9 C 7,9 C 7,9 C 1,2 C 91 % 91 % 0 % 1012,6 hPa 0,0 l/m 0,0 km/h (0 Bft) SO 135 0 min 0,0 UV-I 5,3 C 7,9 C 0,0 km/h (0 Bft)
07.10.2014 04:20 6,7 C 25,6 C 8,0 C 8,1 C 8,1 C 1,4 C 91 % 91 % 0 % 1012,6 hPa 0,0 l/m 0,0 km/h (0 Bft) NW 315 0 min 0,0 UV-I 5,3 C 8,1 C 0,0 km/h (0 Bft)
07.10.2014 04:25 6,8 C 25,6 C 8,2 C 8,2 C 8,2 C 1,4 C 91 % 91 % 0 % 1012,6 hPa 0,0 l/m 0,0 km/h (0 Bft) N-NO 22 0 min 0,0 UV-I 5,4 C 8,2 C 0,0 km/h (0 Bft)
07.10.2014 04:30 6,9 C 25,6 C 8,4 C 8,5 C 8,5 C 1,6 C 91 % 91 % 0 % 1012,6 hPa 0,0 l/m 0,0 km/h (0 Bft) W 270 0 min 0,0 UV-I 5,5 C 8,5 C 0,0 km/h (0 Bft)
07.10.2014 04:35 7,1 C 25,6 C 8,5 C 8,7 C 8,7 C 1,6 C 91 % 91 % 0 % 1012,6 hPa 0,0 l/m 0,0 km/h (0 Bft) O-NO 67 0 min 0,0 UV-I 5,7 C 8,7 C 0,0 km/h (0 Bft)
07.10.2014 04:40 7,2 C 25,6 C 8,6 C 8,8 C 8,8 C 1,6 C 91 % 91 % 0 % 1012,6 hPa 0,0 l/m 0,0 km/h (0 Bft) N-NO 22 0 min 0,0 UV-I 5,8 C 8,8 C 0,0 km/h (0 Bft)
07.10.2014 04:45 7,5 C 25,5 C 8,7 C 8,8 C 8,8 C 1,3 C 91 % 91 % 0 % 1012,6 hPa 0,0 l/m 0,0 km/h (0 Bft) NO 45 0 min 0,0 UV-I 6,1 C 8,8 C 0,0 km/h (0 Bft)
07.10.2014 04:50 7,6 C 25,5 C 8,8 C 8,9 C 8,9 C 1,3 C 91 % 91 % 0 % 1012,2 hPa 0,0 l/m 0,0 km/h (0 Bft) NW 315 0 min 0,0 UV-I 6,2 C 8,9 C 0,0 km/h (0 Bft)
07.10.2014 04:55 7,7 C 25,5 C 8,8 C 8,9 C 8,9 C 1,2 C 92 % 91 % 0 % 1012,2 hPa 0,0 l/m 0,0 km/h (0 Bft) W 270 0 min 0,0 UV-I 6,5 C 8,9 C 0,0 km/h (0 Bft)
07.10.2014 05:00 7,9 C 25,5 C 9,1 C 8,9 C 8,9 C 1,0 C 92 % 91 % 0 % 1012,2 hPa 0,0 l/m 0,0 km/h (0 Bft) W-NW 292 0 min 0,0 UV-I 6,7 C 8,9 C 0,0 km/h (0 Bft)
07.10.2014 05:05 8,1 C 25,5 C 9,0 C 9,0 C 9,0 C 0,9 C 92 % 91 % 0 % 1012,2 hPa 0,0 l/m 0,0 km/h (0 Bft) S-SW 202 0 min 0,0 UV-I 6,9 C 9,0 C 0,0 km/h (0 Bft)
07.10.2014 05:10 8,0 C 25,5 C 9,1 C 8,9 C 8,9 C 0,9 C 91 % 91 % 0 % 1012,2 hPa 0,0 l/m 0,0 km/h (0 Bft) W-NW 292 0 min 0,0 UV-I 6,6 C 8,9 C 0,0 km/h (0 Bft)
07.10.2014 05:15 8,1 C 25,5 C 9,2 C 9,0 C 9,0 C 0,9 C 91 % 91 % 0 % 1012,2 hPa 0,0 l/m 0,0 km/h (0 Bft) NW 315 0 min 0,0 UV-I 6,7 C 9,0 C 0,0 km/h (0 Bft)
07.10.2014 05:20 8,2 C 25,5 C 9,2 C 9,1 C 9,1 C 0,9 C 91 % 91 % 0 % 1012,2 hPa 0,0 l/m 0,2 km/h (0 Bft) W-SW 247 0 min 0,0 UV-I 6,8 C 9,1 C 1,9 km/h (1 Bft)
07.10.2014 05:25 8,2 C 25,5 C 9,2 C 9,2 C 9,2 C 1,0 C 91 % 91 % 0 % 1012,2 hPa 0,0 l/m 0,2 km/h (0 Bft) SW 225 0 min 0,0 UV-I 6,8 C 9,2 C 0,0 km/h (0 Bft)
07.10.2014 05:30 8,4 C 25,5 C 9,5 C 9,3 C 9,3 C 0,9 C 91 % 91 % 0 % 1011,6 hPa 0,0 l/m 0,3 km/h (0 Bft) W 270 0 min 0,0 UV-I 7,0 C 9,3 C 0,0 km/h (0 Bft)
07.10.2014 05:35 8,4 C 25,5 C 9,5 C 9,4 C 9,4 C 1,0 C 91 % 91 % 0 % 1011,6 hPa 0,0 l/m 0,2 km/h (0 Bft) N-NW 337 0 min 0,0 UV-I 7,0 C 9,4 C 2,3 km/h (1 Bft)
07.10.2014 05:40 8,5 C 25,4 C 9,6 C 9,4 C 9,4 C 0,9 C 92 % 91 % 0 % 1011,6 hPa 0,0 l/m 0,0 km/h (0 Bft) W-NW 292 0 min 0,0 UV-I 7,3 C 9,4 C 0,0 km/h (0 Bft)
07.10.2014 05:45 8,5 C 25,3 C 9,7 C 9,4 C 9,4 C 0,9 C 92 % 91 % 0 % 1011,6 hPa 0,0 l/m 0,0 km/h (0 Bft) O-NO 67 0 min 0,0 UV-I 7,3 C 9,4 C 1,6 km/h (1 Bft)
07.10.2014 05:50 8,7 C 25,4 C 9,7 C 9,5 C 9,5 C 0,8 C 92 % 91 % 0 % 1011,6 hPa 0,0 l/m 0,2 km/h (0 Bft) NW 315 0 min 0,0 UV-I 7,5 C 9,5 C 0,0 km/h (0 Bft)
07.10.2014 05:55 8,7 C 25,4 C 9,7 C 9,5 C 9,5 C 0,8 C 92 % 91 % 0 % 1011,6 hPa 0,0 l/m 0,2 km/h (0 Bft) W 270 0 min 0,0 UV-I 7,5 C 9,5 C 0,0 km/h (0 Bft)
07.10.2014 06:00 8,8 C 25,3 C 9,8 C 9,6 C 9,6 C 0,8 C 92 % 91 % 0 % 1011,6 hPa 0,0 l/m 0,3 km/h (0 Bft) S-SW 202 0 min 0,0 UV-I 7,6 C 9,6 C 2,3 km/h (1 Bft)
07.10.2014 06:05 8,8 C 25,3 C 9,9 C 9,7 C 9,7 C 0,9 C 92 % 91 % 0 % 1011,6 hPa 0,0 l/m 0,8 km/h (0 Bft) S-SO 157 0 min 0,0 UV-I 7,6 C 9,7 C 4,5 km/h (1 Bft)
07.10.2014 06:10 8,9 C 25,3 C 10,0 C 9,7 C 9,7 C 0,8 C 92 % 91 % 0 % 1011,6 hPa 0,0 l/m 0,6 km/h (0 Bft) O-NO 67 0 min 0,0 UV-I 7,7 C 9,7 C 0,0 km/h (0 Bft)
07.10.2014 06:15 8,9 C 25,3 C 10,0 C 9,7 C 9,7 C 0,8 C 92 % 91 % 0 % 1011,6 hPa 0,0 l/m 0,2 km/h (0 Bft) SO 135 0 min 0,0 UV-I 7,7 C 9,7 C 0,0 km/h (0 Bft)
07.10.2014 06:20 9,0 C 25,2 C 10,1 C 9,7 C 9,7 C 0,7 C 92 % 91 % 0 % 1011,6 hPa 0,0 l/m 0,8 km/h (0 Bft) NO 45 0 min 0,0 UV-I 7,8 C 9,7 C 0,0 km/h (0 Bft)
07.10.2014 06:25 9,1 C 25,2 C 10,2 C 9,8 C 9,8 C 0,7 C 92 % 91 % 0 % 1011,6 hPa 0,0 l/m 1,0 km/h (0 Bft) SO 135 0 min 0,0 UV-I 7,9 C 9,8 C 6,3 km/h (2 Bft)
07.10.2014 06:30 9,2 C 25,2 C 10,1 C 9,8 C 9,8 C 0,6 C 92 % 91 % 0 % 1010,9 hPa 0,0 l/m 0,8 km/h (0 Bft) O-NO 67 0 min 0,0 UV-I 8,0 C 9,8 C 4,2 km/h (1 Bft)
07.10.2014 06:35 9,3 C 25,2 C 10,3 C 9,8 C 9,8 C 0,5 C 92 % 91 % 0 % 1010,9 hPa 0,0 l/m 0,6 km/h (0 Bft) SW 225 0 min 0,0 UV-I 8,1 C 9,8 C 0,0 km/h (0 Bft)
07.10.2014 06:41 9,2 C 25,2 C 10,3 C 9,7 C 9,7 C 0,5 C 92 % 91 % 0 % 1010,9 hPa 0,0 l/m 0,3 km/h (0 Bft) N 0 0 min 0,0 UV-I 8,0 C 9,7 C 0,0 km/h (0 Bft)
07.10.2014 06:45 9,2 C 25,1 C 10,2 C 9,7 C 9,7 C 0,5 C 92 % 91 % 0 % 1010,9 hPa 0,0 l/m 0,2 km/h (0 Bft) W-NW 292 0 min 0,0 UV-I 8,0 C 9,7 C 0,0 km/h (0 Bft)
07.10.2014 06:50 9,2 C 25,1 C 10,1 C 9,5 C 9,5 C 0,3 C 91 % 91 % 0 % 1011,2 hPa 0,0 l/m 0,2 km/h (0 Bft) S-SW 202 0 min 0,0 UV-I 7,8 C 9,5 C 0,0 km/h (0 Bft)
07.10.2014 06:55 9,1 C 25,1 C 10,1 C 9,4 C 9,4 C 0,3 C 91 % 91 % 0 % 1011,2 hPa 0,0 l/m 0,0 km/h (0 Bft) N 360 0 min 0,0 UV-I 7,7 C 9,4 C 0,0 km/h (0 Bft)
07.10.2014 07:00 9,1 C 25,1 C 10,1 C 9,3 C 9,3 C 0,2 C 91 % 90 % 0 % 1011,2 hPa 0,0 l/m 0,0 km/h (0 Bft) O-NO 67 0 min 0,0 UV-I 7,7 C 9,3 C 0,0 km/h (0 Bft)
07.10.2014 07:05 9,1 C 25,2 C 10,0 C 9,3 C 9,3 C 0,2 C 91 % 90 % 0 % 1011,2 hPa 0,0 l/m 0,0 km/h (0 Bft) O-SO 112 0 min 0,0 UV-I 7,7 C 9,3 C 0,0 km/h (0 Bft)
07.10.2014 07:10 9,1 C 25,2 C 10,0 C 9,2 C 9,2 C 0,1 C 91 % 90 % 0 % 1010,9 hPa 0,0 l/m 0,0 km/h (0 Bft) NO 45 0 min 0,0 UV-I 7,7 C 9,2 C 0,0 km/h (0 Bft)
07.10.2014 07:15 9,1 C 25,2 C 9,9 C 9,2 C 9,2 C 0,1 C 91 % 90 % 0 % 1010,9 hPa 0,0 l/m 0,0 km/h (0 Bft) O-NO 67 0 min 0,0 UV-I 7,7 C 9,2 C 0,0 km/h (0 Bft)
07.10.2014 07:20 9,1 C 25,3 C 9,8 C 9,2 C 9,2 C 0,1 C 91 % 90 % 0 % 1010,9 hPa 0,0 l/m 0,0 km/h (0 Bft) O-SO 112 0 min 0,0 UV-I 7,7 C 9,2 C 0,0 km/h (0 Bft)
07.10.2014 07:25 9,1 C 25,3 C 9,8 C 9,2 C 9,2 C 0,1 C 91 % 90 % 0 % 1010,9 hPa 0,0 l/m 0,5 km/h (0 Bft) O 90 0 min 0,0 UV-I 7,7 C 9,2 C 2,4 km/h (1 Bft)
07.10.2014 07:30 9,1 C 25,3 C 9,8 C 9,4 C 9,4 C 0,3 C 91 % 90 % 8 % 1010,6 hPa 0,0 l/m 0,8 km/h (0 Bft) W-SW 247 5 min 0,0 UV-I 7,7 C 9,4 C 0,0 km/h (0 Bft)
07.10.2014 07:35 9,1 C 25,3 C 9,8 C 9,3 C 9,3 C 0,2 C 91 % 90 % 5 % 1010,6 hPa 0,0 l/m 0,5 km/h (0 Bft) W 270 0 min 0,0 UV-I 7,7 C 9,3 C 0,0 km/h (0 Bft)
07.10.2014 07:40 8,9 C 25,3 C 9,9 C 9,2 C 9,2 C 0,3 C 90 % 90 % 8 % 1010,6 hPa 0,0 l/m 0,0 km/h (0 Bft) W-SW 247 0 min 0,0 UV-I 7,4 C 9,2 C 0,0 km/h (0 Bft)
07.10.2014 07:45 8,8 C 25,3 C 9,9 C 9,1 C 9,1 C 0,3 C 90 % 90 % 8 % 1010,6 hPa 0,0 l/m 0,0 km/h (0 Bft) W 270 0 min 0,0 UV-I 7,3 C 9,1 C 0,0 km/h (0 Bft)
07.10.2014 07:50 8,8 C 25,3 C 9,8 C 9,2 C 9,2 C 0,4 C 90 % 90 % 11 % 1010,6 hPa 0,0 l/m 0,0 km/h (0 Bft) O 90 0 min 0,0 UV-I 7,3 C 9,2 C 0,0 km/h (0 Bft)
07.10.2014 07:55 8,8 C 25,3 C 9,6 C 9,2 C 9,2 C 0,4 C 90 % 90 % 11 % 1010,6 hPa 0,0 l/m 0,0 km/h (0 Bft) O-NO 67 0 min 0,0 UV-I 7,3 C 9,2 C 1,8 km/h (1 Bft)
07.10.2014 08:00 8,9 C 25,3 C 9,7 C 9,5 C 9,5 C 0,6 C 90 % 90 % 16 % 1010,6 hPa 0,0 l/m 0,2 km/h (0 Bft) O 90 0 min 0,0 UV-I 7,4 C 9,5 C 0,0 km/h (0 Bft)
07.10.2014 08:05 8,9 C 25,3 C 9,9 C 9,7 C 9,7 C 0,8 C 90 % 90 % 21 % 1010,6 hPa 0,0 l/m 0,2 km/h (0 Bft) SW 225 0 min 0,0 UV-I 7,4 C 9,7 C 0,0 km/h (0 Bft)
07.10.2014 08:10 9,1 C 25,2 C 10,1 C 10,1 C 10,1 C 1,0 C 91 % 91 % 26 % 1010,8 hPa 0,0 l/m 0,2 km/h (0 Bft) SW 225 0 min 0,0 UV-I 7,7 C 10,1 C 0,0 km/h (0 Bft)
07.10.2014 08:15 9,1 C 25,2 C 10,3 C 10,2 C 10,2 C 1,1 C 91 % 91 % 29 % 1010,8 hPa 0,0 l/m 0,2 km/h (0 Bft) W 270 0 min 0,0 UV-I 7,7 C 10,2 C 0,0 km/h (0 Bft)
07.10.2014 08:20 9,2 C 25,3 C 10,2 C 10,5 C 10,5 C 1,3 C 91 % 90 % 34 % 1010,8 hPa 0,0 l/m 0,0 km/h (0 Bft) N-NO 22 0 min 0,0 UV-I 7,8 C 10,5 C 0,0 km/h (0 Bft)
07.10.2014 08:25 9,3 C 25,2 C 10,5 C 10,8 C 10,8 C 1,5 C 91 % 90 % 39 % 1010,8 hPa 0,0 l/m 0,2 km/h (0 Bft) N-NO 22 0 min 0,0 UV-I 7,9 C 10,8 C 0,0 km/h (0 Bft)
07.10.2014 08:30 9,6 C 25,0 C 10,9 C 11,3 C 11,3 C 1,7 C 91 % 90 % 45 % 1010,8 hPa 0,0 l/m 0,2 km/h (0 Bft) S-SO 157 5 min 0,0 UV-I 8,2 C 11,3 C 0,0 km/h (0 Bft)
07.10.2014 08:35 9,6 C 25,1 C 10,8 C 11,6 C 11,6 C 2,0 C 91 % 90 % 53 % 1010,8 hPa 0,0 l/m 0,0 km/h (0 Bft) W-SW 247 5 min 0,0 UV-I 8,2 C 11,6 C 0,0 km/h (0 Bft)
07.10.2014 08:40 9,7 C 25,0 C 10,9 C 11,5 C 11,5 C 1,8 C 91 % 90 % 47 % 1010,8 hPa 0,0 l/m 0,0 km/h (0 Bft) S 180 0 min 0,0 UV-I 8,3 C 11,5 C 0,0 km/h (0 Bft)
07.10.2014 08:45 9,8 C 25,0 C 10,8 C 11,3 C 11,3 C 1,5 C 91 % 90 % 39 % 1010,8 hPa 0,0 l/m 0,2 km/h (0 Bft) O-SO 112 0 min 0,0 UV-I 8,4 C 11,3 C 0,0 km/h (0 Bft)
07.10.2014 08:50 9,9 C 25,0 C 11,1 C 11,4 C 11,4 C 1,5 C 91 % 90 % 39 % 1010,8 hPa 0,0 l/m 0,0 km/h (0 Bft) SW 225 0 min 0,0 UV-I 8,5 C 11,4 C 0,0 km/h (0 Bft)
07.10.2014 08:55 10,0 C 25,0 C 11,2 C 11,7 C 11,7 C 1,7 C 91 % 90 % 45 % 1010,8 hPa 0,0 l/m 0,0 km/h (0 Bft) S 180 0 min 0,0 UV-I 8,6 C 11,7 C 0,0 km/h (0 Bft)
07.10.2014 09:00 10,2 C 24,9 C 11,5 C 12,0 C 12,0 C 1,8 C 91 % 90 % 47 % 1010,8 hPa 0,0 l/m 0,0 km/h (0 Bft) S-SW 202 0 min 0,0 UV-I 8,8 C 12,0 C 0,0 km/h (0 Bft)
07.10.2014 09:05 10,4 C 24,9 C 11,6 C 12,3 C 12,3 C 1,9 C 91 % 90 % 50 % 1010,8 hPa 0,0 l/m 0,2 km/h (0 Bft) SO 135 0 min 0,0 UV-I 9,0 C 12,3 C 2,4 km/h (1 Bft)
07.10.2014 09:10 10,8 C 24,9 C 12,1 C 13,0 C 13,0 C 2,2 C 91 % 90 % 58 % 1010,9 hPa 0,0 l/m 0,3 km/h (0 Bft) NO 45 0 min 0,0 UV-I 9,4 C 13,0 C 0,0 km/h (0 Bft)
07.10.2014 09:15 11,2 C 24,8 C 12,2 C 13,2 C 13,2 C 2,0 C 92 % 90 % 53 % 1010,9 hPa 0,0 l/m 0,5 km/h (0 Bft) O-NO 67 0 min 0,0 UV-I 9,9 C 13,2 C 3,7 km/h (1 Bft)
07.10.2014 09:20 11,5 C 24,8 C 12,3 C 13,1 C 13,1 C 1,6 C 91 % 89 % 42 % 1010,9 hPa 0,0 l/m 0,8 km/h (0 Bft) NO 45 0 min 0,0 UV-I 10,1 C 13,1 C 0,0 km/h (0 Bft)
07.10.2014 09:25 11,4 C 24,8 C 12,3 C 13,2 C 13,2 C 1,8 C 90 % 89 % 47 % 1010,9 hPa 0,0 l/m 0,6 km/h (0 Bft) O-NO 67 0 min 0,0 UV-I 9,8 C 13,2 C 0,0 km/h (0 Bft)
07.10.2014 09:30 11,7 C 24,8 C 12,5 C 13,4 C 13,4 C 1,7 C 90 % 89 % 45 % 1011,1 hPa 0,0 l/m 0,0 km/h (0 Bft) O-NO 67 0 min 0,0 UV-I 10,1 C 13,4 C 0,0 km/h (0 Bft)
07.10.2014 09:35 11,7 C 24,8 C 12,7 C 13,6 C 13,6 C 1,9 C 90 % 89 % 50 % 1011,1 hPa 0,0 l/m 0,0 km/h (0 Bft) O-NO 67 0 min 0,0 UV-I 10,1 C 13,6 C 0,0 km/h (0 Bft)
07.10.2014 09:41 11,9 C 25,0 C 12,6 C 13,7 C 13,7 C 1,8 C 89 % 88 % 47 % 1011,1 hPa 0,0 l/m 0,0 km/h (0 Bft) N 0 0 min 0,0 UV-I 10,1 C 13,7 C 0,0 km/h (0 Bft)
07.10.2014 09:45 12,1 C 25,0 C 12,7 C 13,6 C 13,6 C 1,5 C 89 % 88 % 39 % 1011,1 hPa 0,0 l/m 0,2 km/h (0 Bft) S-SO 157 0 min 0,0 UV-I 10,3 C 13,6 C 0,0 km/h (0 Bft)
07.10.2014 09:50 12,1 C 25,0 C 12,9 C 13,5 C 13,5 C 1,4 C 88 % 88 % 37 % 1011,1 hPa 0,0 l/m 0,2 km/h (0 Bft) O 90 0 min 0,0 UV-I 10,2 C 13,5 C 1,6 km/h (1 Bft)
07.10.2014 09:55 12,3 C 25,0 C 12,8 C 13,7 C 13,7 C 1,4 C 88 % 88 % 37 % 1011,1 hPa 0,0 l/m 0,6 km/h (0 Bft) SO 135 0 min 0,0 UV-I 10,4 C 13,7 C 4,3 km/h (1 Bft)
07.10.2014 10:00 12,4 C 25,0 C 13,1 C 14,2 C 14,2 C 1,8 C 87 % 88 % 47 % 1011,1 hPa 0,0 l/m 1,4 km/h (1 Bft) NW 315 0 min 0,0 UV-I 10,3 C 14,2 C 0,0 km/h (0 Bft)
07.10.2014 10:05 12,5 C 25,0 C 13,2 C 14,4 C 14,4 C 1,9 C 87 % 88 % 50 % 1011,1 hPa 0,0 l/m 1,3 km/h (1 Bft) O 90 0 min 0,0 UV-I 10,4 C 14,4 C 0,0 km/h (0 Bft)
07.10.2014 10:10 12,7 C 25,0 C 13,3 C 14,8 C 14,8 C 2,1 C 87 % 88 % 55 % 1011,1 hPa 0,0 l/m 0,3 km/h (0 Bft) O-NO 67 0 min 0,0 UV-I 10,6 C 14,8 C 0,0 km/h (0 Bft)
07.10.2014 10:15 12,8 C 25,0 C 13,5 C 15,0 C 15,0 C 2,2 C 86 % 88 % 58 % 1011,1 hPa 0,0 l/m 0,2 km/h (0 Bft) SO 135 0 min 0,0 UV-I 10,5 C 15,0 C 0,0 km/h (0 Bft)
07.10.2014 10:20 13,1 C 25,0 C 13,6 C 15,4 C 15,4 C 2,3 C 86 % 88 % 61 % 1011,1 hPa 0,0 l/m 0,0 km/h (0 Bft) O-NO 67 0 min 0,0 UV-I 10,8 C 15,4 C 0,0 km/h (0 Bft)
07.10.2014 10:25 13,3 C 24,9 C 13,9 C 15,6 C 15,6 C 2,3 C 85 % 87 % 61 % 1011,1 hPa 0,0 l/m 0,6 km/h (0 Bft) SO 135 0 min 0,0 UV-I 10,8 C 15,6 C 1,8 km/h (1 Bft)
07.10.2014 10:30 13,8 C 24,9 C 14,1 C 16,0 C 16,0 C 2,2 C 84 % 87 % 58 % 1011,1 hPa 0,0 l/m 1,8 km/h (1 Bft) SO 135 0 min 0,0 UV-I 11,1 C 16,0 C 2,6 km/h (1 Bft)
07.10.2014 10:35 14,0 C 24,9 C 14,3 C 16,4 C 16,4 C 2,4 C 83 % 86 % 63 % 1011,1 hPa 0,0 l/m 1,8 km/h (1 Bft) O-NO 67 0 min 0,0 UV-I 11,2 C 16,4 C 0,0 km/h (0 Bft)
07.10.2014 10:40 14,4 C 24,9 C 14,4 C 16,6 C 16,6 C 2,2 C 82 % 86 % 58 % 1011,1 hPa 0,0 l/m 1,6 km/h (1 Bft) NO 45 0 min 0,0 UV-I 11,4 C 16,6 C 2,4 km/h (1 Bft)
07.10.2014 10:45 14,7 C 24,9 C 14,5 C 16,6 C 16,6 C 1,9 C 82 % 86 % 50 % 1011,1 hPa 0,0 l/m 1,4 km/h (1 Bft) O-NO 67 0 min 0,0 UV-I 11,7 C 16,6 C 4,0 km/h (1 Bft)
07.10.2014 10:50 14,8 C 24,9 C 14,5 C 16,7 C 16,7 C 1,9 C 81 % 86 % 50 % 1010,8 hPa 0,0 l/m 1,8 km/h (1 Bft) O 90 0 min 0,0 UV-I 11,6 C 16,7 C 4,7 km/h (1 Bft)
07.10.2014 10:55 15,1 C 25,0 C 14,6 C 16,7 C 16,7 C 1,6 C 80 % 86 % 42 % 1010,8 hPa 0,0 l/m 2,1 km/h (1 Bft) O-NO 67 0 min 0,0 UV-I 11,7 C 16,7 C 5,5 km/h (1 Bft)
07.10.2014 11:00 15,2 C 25,0 C 14,8 C 16,7 C 16,7 C 1,5 C 80 % 85 % 39 % 1010,8 hPa 0,0 l/m 2,3 km/h (1 Bft) O-SO 112 0 min 0,0 UV-I 11,8 C 16,7 C 3,9 km/h (1 Bft)
07.10.2014 11:05 15,3 C 25,0 C 14,8 C 16,8 C 16,8 C 1,5 C 80 % 85 % 39 % 1010,8 hPa 0,0 l/m 1,8 km/h (1 Bft) O 90 0 min 0,0 UV-I 11,9 C 16,8 C 0,0 km/h (0 Bft)
07.10.2014 11:10 15,5 C 25,0 C 14,9 C 16,7 C 16,7 C 1,2 C 78 % 84 % 32 % 1010,7 hPa 0,0 l/m 2,3 km/h (1 Bft) NO 45 0 min 0,0 UV-I 11,7 C 16,7 C 0,0 km/h (0 Bft)
07.10.2014 11:15 15,5 C 25,0 C 14,8 C 16,7 C 16,7 C 1,2 C 78 % 84 % 32 % 1010,7 hPa 0,0 l/m 2,4 km/h (1 Bft) N-NW 337 0 min 0,0 UV-I 11,7 C 16,7 C 11,4 km/h (2 Bft)
07.10.2014 11:20 15,6 C 25,0 C 15,0 C 16,8 C 16,8 C 1,2 C 77 % 84 % 32 % 1010,7 hPa 0,0 l/m 3,2 km/h (1 Bft) O 90 0 min 0,0 UV-I 11,6 C 16,8 C 7,7 km/h (2 Bft)
07.10.2014 11:25 15,6 C 25,0 C 15,2 C 17,0 C 17,0 C 1,4 C 77 % 84 % 37 % 1010,7 hPa 0,0 l/m 3,5 km/h (1 Bft) O-NO 67 0 min 0,0 UV-I 11,6 C 17,0 C 6,3 km/h (2 Bft)
07.10.2014 11:30 15,6 C 25,0 C 15,2 C 16,9 C 16,9 C 1,3 C 77 % 83 % 34 % 1010,4 hPa 0,0 l/m 3,9 km/h (1 Bft) O-NO 67 0 min 0,0 UV-I 11,6 C 16,9 C 4,3 km/h (1 Bft)
07.10.2014 11:35 15,6 C 25,0 C 15,2 C 16,8 C 16,8 C 1,2 C 78 % 83 % 32 % 1010,4 hPa 0,0 l/m 3,4 km/h (1 Bft) N-NO 22 0 min 0,0 UV-I 11,8 C 16,8 C 6,4 km/h (2 Bft)
07.10.2014 11:40 15,6 C 25,0 C 15,3 C 16,9 C 16,9 C 1,3 C 78 % 83 % 34 % 1010,4 hPa 0,0 l/m 2,3 km/h (1 Bft) SO 135 0 min 0,0 UV-I 11,8 C 16,9 C 2,4 km/h (1 Bft)
07.10.2014 11:45 15,6 C 25,0 C 15,3 C 17,1 C 17,1 C 1,5 C 77 % 83 % 39 % 1010,4 hPa 0,0 l/m 2,6 km/h (1 Bft) O-NO 67 0 min 0,0 UV-I 11,6 C 17,1 C 2,9 km/h (1 Bft)
07.10.2014 11:50 15,7 C 25,0 C 15,5 C 17,6 C 17,6 C 1,9 C 77 % 82 % 50 % 1010,6 hPa 0,0 l/m 2,9 km/h (1 Bft) O 90 0 min 0,0 UV-I 11,7 C 17,6 C 3,1 km/h (1 Bft)
07.10.2014 11:55 15,7 C 25,0 C 15,4 C 17,6 C 17,6 C 1,9 C 76 % 81 % 50 % 1010,6 hPa 0,0 l/m 3,2 km/h (1 Bft) O-NO 67 0 min 0,0 UV-I 11,5 C 17,6 C 3,9 km/h (1 Bft)
07.10.2014 12:00 15,9 C 25,0 C 15,5 C 17,7 C 17,7 C 1,8 C 76 % 81 % 47 % 1010,6 hPa 0,0 l/m 3,2 km/h (1 Bft) O 90 0 min 0,0 UV-I 11,7 C 17,7 C 3,2 km/h (1 Bft)
07.10.2014 12:05 15,9 C 25,0 C 15,6 C 17,8 C 17,8 C 1,9 C 76 % 81 % 50 % 1010,6 hPa 0,0 l/m 2,6 km/h (1 Bft) S-SO 157 0 min 0,0 UV-I 11,7 C 17,8 C 3,5 km/h (1 Bft)
07.10.2014 12:10 16,0 C 25,1 C 15,7 C 18,1 C 18,1 C 2,1 C 76 % 81 % 55 % 1011,0 hPa 0,0 l/m 2,1 km/h (1 Bft) O-NO 67 0 min 0,0 UV-I 11,8 C 18,1 C 4,8 km/h (1 Bft)
07.10.2014 12:15 16,1 C 25,1 C 15,8 C 18,3 C 18,3 C 2,2 C 75 % 81 % 58 % 1011,0 hPa 0,0 l/m 2,1 km/h (1 Bft) O-NO 67 0 min 0,0 UV-I 11,7 C 18,3 C 3,7 km/h (1 Bft)
07.10.2014 12:20 16,3 C 25,1 C 16,0 C 18,5 C 18,5 C 2,2 C 75 % 81 % 58 % 1011,0 hPa 0,0 l/m 3,2 km/h (1 Bft) O-NO 67 0 min 0,0 UV-I 11,9 C 18,5 C 12,6 km/h (3 Bft)
07.10.2014 12:25 16,2 C 25,1 C 16,0 C 18,5 C 18,5 C 2,3 C 75 % 80 % 61 % 1011,0 hPa 0,0 l/m 3,5 km/h (1 Bft) SO 135 0 min 0,0 UV-I 11,8 C 18,5 C 5,8 km/h (2 Bft)
07.10.2014 12:30 16,3 C 25,1 C 16,1 C 18,5 C 18,5 C 2,2 C 74 % 79 % 58 % 1010,8 hPa 0,0 l/m 3,7 km/h (1 Bft) O-NO 67 0 min 0,0 UV-I 11,7 C 18,5 C 3,4 km/h (1 Bft)
07.10.2014 12:35 16,3 C 25,1 C 16,1 C 18,5 C 18,5 C 2,2 C 74 % 80 % 58 % 1010,8 hPa 0,0 l/m 2,7 km/h (1 Bft) N-NO 22 0 min 0,0 UV-I 11,7 C 18,5 C 2,4 km/h (1 Bft)
07.10.2014 12:41 16,4 C 25,1 C 16,2 C 18,4 C 18,4 C 2,0 C 74 % 79 % 53 % 1010,8 hPa 0,0 l/m 1,9 km/h (1 Bft) N 0 0 min 0,0 UV-I 11,8 C 18,4 C 3,5 km/h (1 Bft)
07.10.2014 12:45 16,5 C 25,1 C 16,1 C 18,4 C 18,4 C 1,9 C 75 % 80 % 50 % 1010,8 hPa 0,0 l/m 1,3 km/h (1 Bft) NO 45 0 min 0,0 UV-I 12,1 C 18,4 C 0,0 km/h (0 Bft)
07.10.2014 12:50 16,7 C 25,1 C 16,3 C 18,6 C 18,6 C 1,9 C 75 % 80 % 50 % 1010,7 hPa 0,0 l/m 1,1 km/h (1 Bft) O-NO 67 0 min 0,0 UV-I 12,2 C 18,6 C 1,8 km/h (1 Bft)
07.10.2014 12:55 16,7 C 25,2 C 16,5 C 19,0 C 19,0 C 2,3 C 75 % 80 % 61 % 1010,7 hPa 0,0 l/m 1,3 km/h (1 Bft) N-NO 22 0 min 0,0 UV-I 12,2 C 19,0 C 2,1 km/h (1 Bft)
07.10.2014 13:00 17,1 C 25,1 C 16,7 C 19,6 C 19,6 C 2,5 C 75 % 80 % 66 % 1010,7 hPa 0,0 l/m 2,6 km/h (1 Bft) N-NW 337 0 min 0,0 UV-I 12,6 C 19,6 C 6,1 km/h (2 Bft)
07.10.2014 13:05 17,3 C 25,1 C 16,8 C 19,7 C 19,7 C 2,4 C 74 % 79 % 63 % 1010,7 hPa 0,0 l/m 3,2 km/h (1 Bft) O-NO 67 0 min 0,0 UV-I 12,6 C 19,7 C 5,3 km/h (1 Bft)
07.10.2014 13:10 17,4 C 25,1 C 17,1 C 19,9 C 19,9 C 2,5 C 73 % 78 % 66 % 1009,9 hPa 0,0 l/m 3,4 km/h (1 Bft) O-NO 67 0 min 0,0 UV-I 12,5 C 19,9 C 5,8 km/h (2 Bft)
07.10.2014 13:15 17,6 C 25,1 C 17,0 C 19,9 C 19,9 C 2,3 C 73 % 78 % 61 % 1009,9 hPa 0,0 l/m 3,4 km/h (1 Bft) O-SO 112 0 min 0,0 UV-I 12,7 C 19,9 C 6,8 km/h (2 Bft)
07.10.2014 13:20 17,7 C 25,1 C 17,2 C 20,3 C 20,3 C 2,6 C 72 % 77 % 68 % 1009,9 hPa 0,0 l/m 3,7 km/h (1 Bft) O 90 0 min 0,0 UV-I 12,6 C 20,3 C 3,1 km/h (1 Bft)
07.10.2014 13:25 17,6 C 25,1 C 17,2 C 20,4 C 20,4 C 2,8 C 71 % 76 % 74 % 1009,9 hPa 0,0 l/m 4,0 km/h (1 Bft) NO 45 0 min 0,0 UV-I 12,3 C 20,4 C 13,7 km/h (3 Bft)
07.10.2014 13:30 17,7 C 25,1 C 17,5 C 20,4 C 20,4 C 2,7 C 71 % 76 % 71 % 1010,0 hPa 0,0 l/m 4,0 km/h (1 Bft) O-NO 67 0 min 0,0 UV-I 12,4 C 20,4 C 9,3 km/h (2 Bft)
07.10.2014 13:35 17,7 C 25,1 C 17,4 C 20,2 C 20,2 C 2,5 C 71 % 75 % 66 % 1010,0 hPa 0,0 l/m 4,3 km/h (1 Bft) SO 135 0 min 0,0 UV-I 12,4 C 20,2 C 13,7 km/h (3 Bft)
07.10.2014 13:40 17,6 C 25,2 C 17,4 C 20,0 C 20,0 C 2,4 C 71 % 74 % 63 % 1010,0 hPa 0,0 l/m 4,7 km/h (1 Bft) O-NO 67 0 min 0,0 UV-I 12,3 C 20,0 C 4,8 km/h (1 Bft)
07.10.2014 13:45 17,7 C 25,2 C 17,4 C 19,9 C 19,9 C 2,2 C 71 % 74 % 58 % 1010,0 hPa 0,0 l/m 4,0 km/h (1 Bft) O-SO 112 0 min 0,0 UV-I 12,4 C 19,9 C 17,1 km/h (3 Bft)
07.10.2014 13:50 17,6 C 25,2 C 17,5 C 19,7 C 19,7 C 2,1 C 70 % 75 % 55 % 1009,9 hPa 0,0 l/m 4,2 km/h (1 Bft) SO 135 0 min 0,0 UV-I 12,1 C 19,7 C 6,0 km/h (2 Bft)
07.10.2014 13:55 17,6 C 25,2 C 17,5 C 19,6 C 19,6 C 2,0 C 70 % 75 % 53 % 1009,9 hPa 0,0 l/m 4,5 km/h (1 Bft) N-NO 22 0 min 0,0 UV-I 12,1 C 19,6 C 7,9 km/h (2 Bft)
07.10.2014 14:00 17,6 C 25,2 C 17,5 C 19,7 C 19,7 C 2,1 C 70 % 75 % 55 % 1009,9 hPa 0,0 l/m 3,5 km/h (1 Bft) O-SO 112 0 min 0,0 UV-I 12,1 C 19,7 C 5,6 km/h (1 Bft)
07.10.2014 14:05 17,7 C 25,2 C 17,3 C 19,5 C 19,5 C 1,8 C 70 % 75 % 47 % 1009,9 hPa 0,0 l/m 4,0 km/h (1 Bft) O-SO 112 0 min 0,0 UV-I 12,2 C 19,5 C 7,9 km/h (2 Bft)
07.10.2014 14:10 17,5 C 25,2 C 17,2 C 19,0 C 19,0 C 1,5 C 70 % 73 % 39 % 1010,2 hPa 0,0 l/m 4,5 km/h (1 Bft) O-SO 112 0 min 0,0 UV-I 12,0 C 19,0 C 1,6 km/h (1 Bft)
07.10.2014 14:15 17,3 C 25,2 C 17,1 C 18,8 C 18,8 C 1,5 C 70 % 74 % 39 % 1010,2 hPa 0,0 l/m 3,9 km/h (1 Bft) O-NO 67 0 min 0,0 UV-I 11,8 C 18,8 C 7,2 km/h (2 Bft)
07.10.2014 14:20 17,1 C 25,2 C 16,9 C 18,5 C 18,5 C 1,4 C 69 % 74 % 37 % 1010,2 hPa 0,0 l/m 4,3 km/h (1 Bft) NO 45 0 min 0,0 UV-I 11,4 C 18,5 C 7,9 km/h (2 Bft)
07.10.2014 14:25 17,1 C 25,2 C 16,7 C 18,1 C 18,1 C 1,0 C 70 % 75 % 26 % 1010,2 hPa 0,0 l/m 5,0 km/h (1 Bft) O-NO 67 0 min 0,0 UV-I 11,6 C 18,1 C 4,3 km/h (1 Bft)
07.10.2014 14:30 16,8 C 25,2 C 16,5 C 17,8 C 17,8 C 1,0 C 71 % 75 % 26 % 1010,0 hPa 0,0 l/m 4,3 km/h (1 Bft) S-SO 157 0 min 0,0 UV-I 11,5 C 17,8 C 8,7 km/h (2 Bft)
07.10.2014 14:35 16,7 C 25,3 C 16,4 C 17,6 C 17,6 C 0,9 C 71 % 75 % 24 % 1010,0 hPa 0,0 l/m 4,7 km/h (1 Bft) NO 45 0 min 0,0 UV-I 11,4 C 17,6 C 4,2 km/h (1 Bft)
07.10.2014 14:40 16,7 C 25,3 C 16,4 C 17,5 C 17,5 C 0,8 C 72 % 75 % 21 % 1010,0 hPa 0,0 l/m 5,0 km/h (1 Bft) O-NO 67 0 min 0,0 UV-I 11,6 C 17,5 C 8,2 km/h (2 Bft)
07.10.2014 14:45 16,5 C 25,3 C 16,2 C 17,4 C 17,4 C 0,9 C 71 % 75 % 24 % 1010,0 hPa 0,0 l/m 5,0 km/h (1 Bft) O-NO 67 0 min 0,0 UV-I 11,2 C 17,4 C 3,9 km/h (1 Bft)
07.10.2014 14:50 16,5 C 25,3 C 16,3 C 17,3 C 17,3 C 0,8 C 72 % 75 % 21 % 1009,9 hPa 0,0 l/m 4,5 km/h (1 Bft) O-SO 112 0 min 0,0 UV-I 11,4 C 17,3 C 4,5 km/h (1 Bft)
07.10.2014 14:55 16,4 C 25,3 C 16,1 C 17,2 C 17,2 C 0,8 C 72 % 75 % 21 % 1009,9 hPa 0,0 l/m 3,9 km/h (1 Bft) O-NO 67 0 min 0,0 UV-I 11,3 C 17,2 C 4,0 km/h (1 Bft)
07.10.2014 15:00 16,3 C 25,3 C 16,1 C 17,2 C 17,2 C 0,9 C 73 % 76 % 24 % 1009,9 hPa 0,0 l/m 3,9 km/h (1 Bft) O-SO 112 0 min 0,0 UV-I 11,4 C 17,2 C 6,6 km/h (2 Bft)
07.10.2014 15:05 16,3 C 25,3 C 16,1 C 17,3 C 17,3 C 1,0 C 73 % 76 % 26 % 1009,9 hPa 0,0 l/m 4,3 km/h (1 Bft) O-NO 67 0 min 0,0 UV-I 11,4 C 17,3 C 4,3 km/h (1 Bft)
07.10.2014 15:10 16,3 C 25,3 C 16,1 C 17,3 C 17,3 C 1,0 C 73 % 76 % 26 % 1009,8 hPa 0,0 l/m 3,9 km/h (1 Bft) NO 45 0 min 0,0 UV-I 11,4 C 17,3 C 3,2 km/h (1 Bft)
07.10.2014 15:15 16,3 C 25,3 C 16,0 C 17,3 C 17,3 C 1,0 C 73 % 76 % 26 % 1009,8 hPa 0,0 l/m 3,2 km/h (1 Bft) O 90 0 min 0,0 UV-I 11,4 C 17,3 C 2,3 km/h (1 Bft)
07.10.2014 15:20 16,3 C 25,3 C 16,0 C 17,1 C 17,1 C 0,8 C 73 % 77 % 21 % 1009,8 hPa 0,0 l/m 2,9 km/h (1 Bft) O-NO 67 0 min 0,0 UV-I 11,4 C 17,1 C 4,3 km/h (1 Bft)
07.10.2014 15:25 16,2 C 25,3 C 15,9 C 17,0 C 17,0 C 0,8 C 73 % 76 % 21 % 1009,8 hPa 0,0 l/m 2,3 km/h (1 Bft) N-NO 22 0 min 0,0 UV-I 11,4 C 17,0 C 2,6 km/h (1 Bft)
07.10.2014 15:30 16,1 C 25,4 C 15,8 C 16,9 C 16,9 C 0,8 C 72 % 76 % 21 % 1010,1 hPa 0,0 l/m 2,4 km/h (1 Bft) O 90 0 min 0,0 UV-I 11,0 C 16,9 C 5,8 km/h (2 Bft)
07.10.2014 15:35 16,0 C 25,4 C 15,7 C 16,9 C 16,9 C 0,9 C 73 % 77 % 24 % 1010,1 hPa 0,0 l/m 1,9 km/h (1 Bft) O-SO 112 0 min 0,0 UV-I 11,2 C 16,9 C 2,4 km/h (1 Bft)
07.10.2014 15:41 16,1 C 25,5 C 15,8 C 17,1 C 17,1 C 1,0 C 73 % 77 % 26 % 1010,1 hPa 0,0 l/m 2,1 km/h (1 Bft) N 0 0 min 0,0 UV-I 11,3 C 17,1 C 0,0 km/h (0 Bft)
07.10.2014 15:45 16,1 C 25,5 C 15,9 C 17,3 C 17,3 C 1,2 C 73 % 77 % 32 % 1010,1 hPa 0,0 l/m 1,9 km/h (1 Bft) O-NO 67 0 min 0,0 UV-I 11,3 C 17,3 C 0,0 km/h (0 Bft)
07.10.2014 15:50 16,2 C 25,5 C 15,9 C 17,3 C 17,3 C 1,1 C 74 % 77 % 29 % 1010,1 hPa 0,0 l/m 1,9 km/h (1 Bft) O 90 0 min 0,0 UV-I 11,6 C 17,3 C 4,0 km/h (1 Bft)
07.10.2014 15:55 16,2 C 25,4 C 16,0 C 17,4 C 17,4 C 1,2 C 74 % 77 % 32 % 1010,1 hPa 0,0 l/m 1,9 km/h (1 Bft) O-SO 112 0 min 0,0 UV-I 11,6 C 17,4 C 0,0 km/h (0 Bft)
07.10.2014 16:00 16,3 C 25,4 C 16,1 C 17,5 C 17,5 C 1,2 C 74 % 77 % 32 % 1010,1 hPa 0,0 l/m 1,9 km/h (1 Bft) SO 135 0 min 0,0 UV-I 11,7 C 17,5 C 3,4 km/h (1 Bft)
07.10.2014 16:05 16,3 C 25,4 C 16,0 C 17,5 C 17,5 C 1,2 C 74 % 78 % 32 % 1010,1 hPa 0,0 l/m 1,3 km/h (1 Bft) SO 135 0 min 0,0 UV-I 11,7 C 17,5 C 1,6 km/h (1 Bft)
07.10.2014 16:10 16,3 C 25,4 C 16,0 C 17,5 C 17,5 C 1,2 C 74 % 78 % 32 % 1010,2 hPa 0,0 l/m 0,8 km/h (0 Bft) NO 45 0 min 0,0 UV-I 11,7 C 17,5 C 0,0 km/h (0 Bft)
07.10.2014 16:15 16,3 C 25,4 C 16,0 C 17,3 C 17,3 C 1,0 C 74 % 77 % 26 % 1010,2 hPa 0,0 l/m 0,6 km/h (0 Bft) O 90 0 min 0,0 UV-I 11,7 C 17,3 C 0,0 km/h (0 Bft)
07.10.2014 16:20 16,4 C 25,4 C 15,9 C 17,0 C 17,0 C 0,6 C 74 % 78 % 16 % 1010,2 hPa 0,0 l/m 0,2 km/h (0 Bft) O-NO 67 0 min 0,0 UV-I 11,8 C 17,0 C 0,0 km/h (0 Bft)
07.10.2014 16:25 16,4 C 25,5 C 15,9 C 16,3 C 16,2 C 0,0 C 74 % 79 % 0 % 1010,2 hPa 0,0 l/m 0,2 km/h (0 Bft) O-SO 112 0 min 0,0 UV-I 11,8 C 16,2 C 0,0 km/h (0 Bft)
07.10.2014 16:30 16,2 C 25,6 C 15,7 C 16,1 C 15,9 C 0,0 C 75 % 80 % 0 % 1010,3 hPa 0,0 l/m 0,2 km/h (0 Bft) O-NO 67 0 min 0,0 UV-I 11,8 C 15,9 C 0,0 km/h (0 Bft)
07.10.2014 16:35 16,2 C 25,6 C 15,6 C 16,1 C 16,0 C 0,0 C 76 % 80 % 0 % 1010,3 hPa 0,0 l/m 0,3 km/h (0 Bft) W 270 0 min 0,0 UV-I 12,0 C 16,0 C 0,0 km/h (0 Bft)
07.10.2014 16:40 16,3 C 25,6 C 15,6 C 16,2 C 16,0 C 0,0 C 76 % 81 % 0 % 1010,3 hPa 0,0 l/m 0,2 km/h (0 Bft) O 90 0 min 0,0 UV-I 12,1 C 16,0 C 0,0 km/h (0 Bft)
07.10.2014 16:45 16,1 C 25,6 C 15,5 C 16,1 C 16,0 C 0,0 C 76 % 81 % 0 % 1010,3 hPa 0,0 l/m 0,2 km/h (0 Bft) O-NO 67 0 min 0,0 UV-I 11,9 C 16,0 C 2,4 km/h (1 Bft)
07.10.2014 16:50 15,9 C 25,6 C 15,4 C 15,9 C 15,8 C 0,0 C 76 % 80 % 0 % 1010,9 hPa 0,0 l/m 0,8 km/h (0 Bft) S-SO 157 0 min 0,0 UV-I 11,7 C 15,8 C 0,0 km/h (0 Bft)
07.10.2014 16:55 15,8 C 25,6 C 15,3 C 15,8 C 15,8 C 0,0 C 76 % 80 % 0 % 1010,9 hPa 0,0 l/m 0,8 km/h (0 Bft) O-NO 67 0 min 0,0 UV-I 11,6 C 15,8 C 2,1 km/h (1 Bft)
07.10.2014 17:00 15,7 C 25,6 C 15,2 C 15,7 C 15,7 C 0,0 C 76 % 81 % 0 % 1010,9 hPa 0,0 l/m 0,6 km/h (0 Bft) O-SO 112 0 min 0,0 UV-I 11,5 C 15,7 C 1,9 km/h (1 Bft)
07.10.2014 17:05 15,7 C 25,6 C 15,1 C 15,7 C 15,7 C 0,0 C 76 % 80 % 0 % 1010,9 hPa 0,0 l/m 1,3 km/h (1 Bft) O-NO 67 0 min 0,0 UV-I 11,5 C 15,7 C 4,5 km/h (1 Bft)
07.10.2014 17:10 15,5 C 25,6 C 15,1 C 15,6 C 15,6 C 0,1 C 76 % 81 % 3 % 1011,0 hPa 0,0 l/m 2,7 km/h (1 Bft) N-NO 22 0 min 0,0 UV-I 11,3 C 15,6 C 4,2 km/h (1 Bft)
07.10.2014 17:15 15,5 C 25,6 C 15,1 C 15,6 C 15,6 C 0,1 C 76 % 81 % 3 % 1011,0 hPa 0,0 l/m 3,2 km/h (1 Bft) O-SO 112 0 min 0,0 UV-I 11,3 C 15,6 C 1,9 km/h (1 Bft)
07.10.2014 17:20 15,5 C 25,6 C 15,0 C 15,6 C 15,6 C 0,1 C 76 % 81 % 3 % 1011,0 hPa 0,0 l/m 3,4 km/h (1 Bft) NO 45 0 min 0,0 UV-I 11,3 C 15,6 C 6,8 km/h (2 Bft)
07.10.2014 17:25 15,5 C 25,6 C 15,0 C 15,6 C 15,6 C 0,1 C 76 % 81 % 3 % 1011,0 hPa 0,0 l/m 3,1 km/h (1 Bft) O-SO 112 0 min 0,0 UV-I 11,3 C 15,6 C 0,0 km/h (0 Bft)
07.10.2014 17:30 15,5 C 25,6 C 14,9 C 15,6 C 15,6 C 0,1 C 77 % 81 % 3 % 1010,9 hPa 0,0 l/m 2,3 km/h (1 Bft) O-NO 67 0 min 0,0 UV-I 11,5 C 15,6 C 6,6 km/h (2 Bft)
07.10.2014 17:35 15,5 C 25,6 C 15,0 C 15,6 C 15,6 C 0,1 C 77 % 80 % 3 % 1010,9 hPa 0,0 l/m 1,4 km/h (1 Bft) O-NO 67 0 min 0,0 UV-I 11,5 C 15,6 C 2,1 km/h (1 Bft)
07.10.2014 17:40 15,4 C 25,6 C 15,1 C 15,7 C 15,7 C 0,3 C 77 % 80 % 8 % 1010,9 hPa 0,0 l/m 1,1 km/h (1 Bft) W-SW 247 0 min 0,0 UV-I 11,4 C 15,7 C 0,0 km/h (0 Bft)
07.10.2014 17:45 15,5 C 25,6 C 15,2 C 15,8 C 15,8 C 0,3 C 77 % 80 % 8 % 1010,9 hPa 0,0 l/m 0,6 km/h (0 Bft) O-SO 112 0 min 0,0 UV-I 11,5 C 15,8 C 0,0 km/h (0 Bft)
07.10.2014 17:50 15,9 C 25,7 C 15,3 C 16,2 C 16,2 C 0,3 C 77 % 80 % 8 % 1010,6 hPa 0,0 l/m 1,3 km/h (1 Bft) SO 135 0 min 0,0 UV-I 11,9 C 16,2 C 2,9 km/h (1 Bft)
07.10.2014 17:55 16,1 C 25,7 C 15,5 C 16,5 C 16,5 C 0,4 C 77 % 80 % 11 % 1010,6 hPa 0,0 l/m 2,1 km/h (1 Bft) O 90 0 min 0,0 UV-I 12,1 C 16,5 C 2,7 km/h (1 Bft)
07.10.2014 18:00 16,5 C 25,6 C 15,8 C 16,8 C 16,8 C 0,3 C 76 % 79 % 8 % 1010,6 hPa 0,0 l/m 2,6 km/h (1 Bft) SW 225 0 min 0,0 UV-I 12,3 C 16,8 C 1,8 km/h (1 Bft)
07.10.2014 18:05 16,5 C 25,6 C 16,0 C 16,9 C 16,9 C 0,4 C 75 % 79 % 11 % 1010,6 hPa 0,0 l/m 2,3 km/h (1 Bft) N-NO 22 0 min 0,0 UV-I 12,1 C 16,9 C 1,6 km/h (1 Bft)
07.10.2014 18:10 16,7 C 25,6 C 16,0 C 16,9 C 16,9 C 0,2 C 75 % 79 % 5 % 1010,3 hPa 0,0 l/m 1,1 km/h (1 Bft) S 180 0 min 0,0 UV-I 12,2 C 16,9 C 0,0 km/h (0 Bft)
07.10.2014 18:15 16,7 C 25,6 C 16,0 C 16,9 C 16,9 C 0,2 C 74 % 79 % 5 % 1010,3 hPa 0,0 l/m 1,0 km/h (0 Bft) SO 135 0 min 0,0 UV-I 12,0 C 16,9 C 4,2 km/h (1 Bft)
07.10.2014 18:20 16,8 C 25,6 C 16,0 C 17,0 C 17,0 C 0,2 C 73 % 79 % 5 % 1010,3 hPa 0,0 l/m 1,1 km/h (1 Bft) SW 225 0 min 0,0 UV-I 11,9 C 17,0 C 0,0 km/h (0 Bft)
07.10.2014 18:25 16,9 C 25,6 C 16,0 C 17,0 C 17,0 C 0,1 C 73 % 78 % 0 % 1010,3 hPa 0,0 l/m 0,8 km/h (0 Bft) O-NO 67 0 min 0,0 UV-I 12,0 C 17,0 C 2,1 km/h (1 Bft)
07.10.2014 18:30 16,8 C 25,6 C 15,9 C 16,9 C 16,9 C 0,1 C 72 % 78 % 0 % 1010,1 hPa 0,0 l/m 0,3 km/h (0 Bft) NO 45 0 min 0,0 UV-I 11,7 C 16,9 C 0,0 km/h (0 Bft)
07.10.2014 18:35 16,8 C 25,6 C 15,9 C 16,9 C 16,9 C 0,1 C 72 % 78 % 0 % 1010,1 hPa 0,0 l/m 0,8 km/h (0 Bft) O-NO 67 0 min 0,0 UV-I 11,7 C 16,9 C 2,7 km/h (1 Bft)
07.10.2014 18:41 16,9 C 25,6 C 16,0 C 16,9 C 16,9 C 0,0 C 72 % 78 % 0 % 1010,1 hPa 0,0 l/m 0,8 km/h (0 Bft) N 0 0 min 0,0 UV-I 11,8 C 16,9 C 0,0 km/h (0 Bft)
07.10.2014 18:45 16,8 C 25,7 C 15,9 C 16,9 C 16,9 C 0,1 C 72 % 77 % 0 % 1010,1 hPa 0,0 l/m 0,8 km/h (0 Bft) O-NO 67 0 min 0,0 UV-I 11,7 C 16,9 C 1,9 km/h (1 Bft)
07.10.2014 18:50 16,8 C 25,7 C 15,9 C 16,8 C 16,7 C 0,0 C 72 % 77 % 0 % 1009,8 hPa 0,0 l/m 0,6 km/h (0 Bft) NO 45 0 min 0,0 UV-I 11,7 C 16,7 C 2,1 km/h (1 Bft)
07.10.2014 18:55 16,7 C 25,7 C 15,8 C 16,7 C 16,6 C 0,0 C 72 % 77 % 0 % 1009,8 hPa 0,0 l/m 1,1 km/h (1 Bft) S 180 0 min 0,0 UV-I 11,6 C 16,6 C 1,9 km/h (1 Bft)
07.10.2014 19:00 16,7 C 25,7 C 15,7 C 16,6 C 16,4 C 0,0 C 72 % 77 % 0 % 1009,8 hPa 0,0 l/m 1,3 km/h (1 Bft) S 180 0 min 0,0 UV-I 11,6 C 16,4 C 2,3 km/h (1 Bft)
07.10.2014 19:05 16,5 C 25,7 C 15,7 C 16,4 C 16,3 C 0,0 C 72 % 77 % 0 % 1009,8 hPa 0,0 l/m 1,0 km/h (0 Bft) W-NW 292 0 min 0,0 UV-I 11,4 C 16,3 C 1,8 km/h (1 Bft)
07.10.2014 19:10 16,4 C 25,7 C 15,6 C 16,3 C 16,2 C 0,0 C 72 % 77 % 0 % 1010,2 hPa 0,0 l/m 0,6 km/h (0 Bft) O 90 0 min 0,0 UV-I 11,3 C 16,2 C 0,0 km/h (0 Bft)
07.10.2014 19:15 16,4 C 25,7 C 15,5 C 16,3 C 16,2 C 0,0 C 72 % 78 % 0 % 1010,2 hPa 0,0 l/m 0,3 km/h (0 Bft) O-SO 112 0 min 0,0 UV-I 11,3 C 16,2 C 0,0 km/h (0 Bft)
07.10.2014 19:20 16,3 C 25,7 C 15,4 C 16,2 C 16,0 C 0,0 C 73 % 78 % 0 % 1010,2 hPa 0,0 l/m 0,3 km/h (0 Bft) O-NO 67 0 min 0,0 UV-I 11,4 C 16,0 C 0,0 km/h (0 Bft)
07.10.2014 19:25 16,3 C 25,7 C 15,4 C 16,1 C 15,8 C 0,0 C 73 % 78 % 0 % 1010,2 hPa 0,0 l/m 0,2 km/h (0 Bft) O 90 0 min 0,0 UV-I 11,4 C 15,8 C 0,0 km/h (0 Bft)
07.10.2014 19:30 16,1 C 25,7 C 15,2 C 16,0 C 15,8 C 0,0 C 73 % 79 % 0 % 1010,1 hPa 0,0 l/m 0,0 km/h (0 Bft) W 270 0 min 0,0 UV-I 11,3 C 15,8 C 0,0 km/h (0 Bft)
07.10.2014 19:35 16,0 C 25,7 C 15,2 C 15,9 C 15,7 C 0,0 C 74 % 79 % 0 % 1010,1 hPa 0,0 l/m 0,2 km/h (0 Bft) S 180 0 min 0,0 UV-I 11,4 C 15,7 C 0,0 km/h (0 Bft)
07.10.2014 19:40 16,0 C 25,7 C 15,3 C 16,0 C 15,9 C 0,0 C 74 % 79 % 0 % 1010,1 hPa 0,0 l/m 0,5 km/h (0 Bft) SW 225 0 min 0,0 UV-I 11,4 C 15,9 C 0,0 km/h (0 Bft)
07.10.2014 19:45 16,1 C 25,7 C 15,2 C 16,1 C 16,0 C 0,0 C 74 % 79 % 0 % 1010,1 hPa 0,0 l/m 0,6 km/h (0 Bft) S-SW 202 0 min 0,0 UV-I 11,5 C 16,0 C 0,0 km/h (0 Bft)
07.10.2014 19:50 16,1 C 25,7 C 15,3 C 16,1 C 16,1 C 0,0 C 74 % 79 % 0 % 1009,8 hPa 0,0 l/m 0,3 km/h (0 Bft) O-SO 112 0 min 0,0 UV-I 11,5 C 16,1 C 0,0 km/h (0 Bft)
07.10.2014 19:55 16,3 C 25,7 C 15,4 C 16,3 C 16,2 C 0,0 C 73 % 79 % 0 % 1009,8 hPa 0,0 l/m 0,6 km/h (0 Bft) NO 45 0 min 0,0 UV-I 11,4 C 16,2 C 1,8 km/h (1 Bft)
07.10.2014 20:00 16,3 C 25,7 C 15,7 C 16,4 C 16,4 C 0,1 C 73 % 78 % 0 % 1009,8 hPa 0,0 l/m 0,8 km/h (0 Bft) W-SW 247 0 min 0,0 UV-I 11,4 C 16,4 C 2,4 km/h (1 Bft)
07.10.2014 20:05 16,5 C 25,7 C 15,7 C 16,5 C 16,4 C 0,0 C 73 % 78 % 0 % 1009,8 hPa 0,0 l/m 1,0 km/h (0 Bft) S 180 0 min 0,0 UV-I 11,6 C 16,4 C 3,7 km/h (1 Bft)
07.10.2014 20:10 16,5 C 25,7 C 15,6 C 16,6 C 16,6 C 0,1 C 72 % 78 % 0 % 1010,2 hPa 0,0 l/m 1,3 km/h (1 Bft) W 270 0 min 0,0 UV-I 11,4 C 16,6 C 2,4 km/h (1 Bft)
07.10.2014 20:15 16,7 C 25,8 C 15,7 C 16,7 C 16,6 C 0,0 C 72 % 78 % 0 % 1010,2 hPa 0,0 l/m 1,8 km/h (1 Bft) SW 225 0 min 0,0 UV-I 11,6 C 16,6 C 2,4 km/h (1 Bft)
07.10.2014 20:20 16,7 C 25,8 C 15,7 C 16,7 C 16,6 C 0,0 C 72 % 78 % 0 % 1010,2 hPa 0,0 l/m 1,8 km/h (1 Bft) O-NO 67 0 min 0,0 UV-I 11,6 C 16,6 C 2,7 km/h (1 Bft)
07.10.2014 20:25 16,7 C 25,8 C 15,6 C 16,7 C 16,6 C 0,0 C 72 % 78 % 0 % 1010,2 hPa 0,0 l/m 1,1 km/h (1 Bft) O 90 0 min 0,0 UV-I 11,6 C 16,6 C 1,8 km/h (1 Bft)
07.10.2014 20:30 16,6 C 25,8 C 15,7 C 16,6 C 16,6 C 0,0 C 72 % 78 % 0 % 1010,3 hPa 0,0 l/m 1,3 km/h (1 Bft) O 90 0 min 0,0 UV-I 11,5 C 16,6 C 1,6 km/h (1 Bft)
07.10.2014 20:35 16,7 C 25,8 C 15,7 C 16,7 C 16,6 C 0,0 C 72 % 78 % 0 % 1010,3 hPa 0,0 l/m 1,3 km/h (1 Bft) SO 135 0 min 0,0 UV-I 11,6 C 16,6 C 3,2 km/h (1 Bft)
07.10.2014 20:40 16,7 C 25,8 C 15,7 C 16,7 C 16,6 C 0,0 C 72 % 78 % 0 % 1010,3 hPa 0,0 l/m 0,8 km/h (0 Bft) N 360 0 min 0,0 UV-I 11,6 C 16,6 C 0,0 km/h (0 Bft)
07.10.2014 20:45 16,7 C 25,8 C 15,7 C 16,7 C 16,6 C 0,0 C 72 % 78 % 0 % 1010,3 hPa 0,0 l/m 0,8 km/h (0 Bft) S-SW 202 0 min 0,0 UV-I 11,6 C 16,6 C 0,0 km/h (0 Bft)
07.10.2014 20:50 16,7 C 25,8 C 15,6 C 16,7 C 16,6 C 0,0 C 72 % 78 % 0 % 1010,2 hPa 0,0 l/m 0,8 km/h (0 Bft) S 180 0 min 0,0 UV-I 11,6 C 16,6 C 4,3 km/h (1 Bft)
07.10.2014 20:55 16,7 C 25,8 C 15,7 C 16,7 C 16,6 C 0,0 C 72 % 78 % 0 % 1010,2 hPa 0,0 l/m 1,1 km/h (1 Bft) S 180 0 min 0,0 UV-I 11,6 C 16,6 C 4,0 km/h (1 Bft)
07.10.2014 21:00 16,7 C 25,8 C 15,7 C 16,7 C 16,6 C 0,0 C 72 % 78 % 0 % 1010,2 hPa 0,0 l/m 1,3 km/h (1 Bft) NW 315 0 min 0,0 UV-I 11,6 C 16,6 C 3,1 km/h (1 Bft)
07.10.2014 21:05 16,7 C 25,8 C 15,6 C 16,7 C 16,6 C 0,0 C 72 % 78 % 0 % 1010,2 hPa 0,0 l/m 1,4 km/h (1 Bft) S 180 0 min 0,0 UV-I 11,6 C 16,6 C 2,6 km/h (1 Bft)
07.10.2014 21:10 16,8 C 25,8 C 15,7 C 16,7 C 16,6 C 0,0 C 72 % 78 % 0 % 1010,2 hPa 0,0 l/m 1,6 km/h (1 Bft) S 180 0 min 0,0 UV-I 11,7 C 16,6 C 3,2 km/h (1 Bft)
07.10.2014 21:15 16,8 C 25,8 C 15,7 C 16,7 C 16,6 C 0,0 C 72 % 78 % 0 % 1010,2 hPa 0,0 l/m 1,1 km/h (1 Bft) N-NW 337 0 min 0,0 UV-I 11,7 C 16,6 C 0,0 km/h (0 Bft)
07.10.2014 21:20 16,8 C 25,8 C 15,7 C 16,7 C 16,6 C 0,0 C 72 % 78 % 0 % 1010,2 hPa 0,0 l/m 1,0 km/h (0 Bft) S 180 0 min 0,0 UV-I 11,7 C 16,6 C 0,0 km/h (0 Bft)
07.10.2014 21:25 16,9 C 25,8 C 15,7 C 16,8 C 16,7 C 0,0 C 72 % 78 % 0 % 1010,2 hPa 0,0 l/m 1,3 km/h (1 Bft) S 180 0 min 0,0 UV-I 11,8 C 16,7 C 2,3 km/h (1 Bft)
07.10.2014 21:30 16,9 C 25,8 C 15,8 C 16,8 C 16,7 C 0,0 C 71 % 78 % 0 % 1010,4 hPa 0,0 l/m 1,4 km/h (1 Bft) S 180 0 min 0,0 UV-I 11,6 C 16,7 C 0,0 km/h (0 Bft)
07.10.2014 21:35 16,8 C 25,8 C 15,7 C 16,7 C 16,6 C 0,0 C 71 % 78 % 0 % 1010,4 hPa 0,0 l/m 1,1 km/h (1 Bft) SO 135 0 min 0,0 UV-I 11,5 C 16,6 C 3,4 km/h (1 Bft)
07.10.2014 21:41 16,8 C 25,8 C 15,6 C 16,7 C 16,4 C 0,0 C 71 % 78 % 0 % 1010,4 hPa 0,0 l/m 1,0 km/h (0 Bft) N 0 0 min 0,0 UV-I 11,5 C 16,4 C 2,6 km/h (1 Bft)
07.10.2014 21:45 16,7 C 25,9 C 15,6 C 16,5 C 16,2 C 0,0 C 71 % 78 % 0 % 1010,4 hPa 0,0 l/m 1,0 km/h (0 Bft) S-SO 157 0 min 0,0 UV-I 11,4 C 16,2 C 2,1 km/h (1 Bft)
07.10.2014 21:50 16,7 C 25,9 C 15,5 C 16,5 C 16,2 C 0,0 C 72 % 78 % 0 % 1010,3 hPa 0,0 l/m 0,3 km/h (0 Bft) S-SO 157 0 min 0,0 UV-I 11,6 C 16,2 C 0,0 km/h (0 Bft)
07.10.2014 21:55 16,7 C 25,9 C 15,5 C 16,5 C 16,0 C 0,0 C 72 % 78 % 0 % 1010,3 hPa 0,0 l/m 0,5 km/h (0 Bft) S 180 0 min 0,0 UV-I 11,6 C 16,0 C 2,6 km/h (1 Bft)
07.10.2014 22:00 16,5 C 25,9 C 15,4 C 16,3 C 15,9 C 0,0 C 71 % 78 % 0 % 1010,3 hPa 0,0 l/m 0,6 km/h (0 Bft) SW 225 0 min 0,0 UV-I 11,2 C 15,9 C 0,0 km/h (0 Bft)
07.10.2014 22:05 16,5 C 25,9 C 15,3 C 16,3 C 15,9 C 0,0 C 71 % 78 % 0 % 1010,3 hPa 0,0 l/m 1,0 km/h (0 Bft) S-SW 202 0 min 0,0 UV-I 11,2 C 15,9 C 1,8 km/h (1 Bft)
07.10.2014 22:10 16,4 C 25,9 C 15,3 C 16,2 C 15,8 C 0,0 C 72 % 78 % 0 % 1010,3 hPa 0,0 l/m 0,8 km/h (0 Bft) N 360 0 min 0,0 UV-I 11,3 C 15,8 C 0,0 km/h (0 Bft)
07.10.2014 22:15 16,4 C 25,9 C 15,3 C 16,2 C 15,8 C 0,0 C 72 % 78 % 0 % 1010,3 hPa 0,0 l/m 0,3 km/h (0 Bft) N-NO 22 0 min 0,0 UV-I 11,3 C 15,8 C 0,0 km/h (0 Bft)
07.10.2014 22:20 16,4 C 25,9 C 15,5 C 16,2 C 15,8 C 0,0 C 72 % 78 % 0 % 1010,3 hPa 0,0 l/m 0,5 km/h (0 Bft) SW 225 0 min 0,0 UV-I 11,3 C 15,8 C 0,0 km/h (0 Bft)
07.10.2014 22:25 16,4 C 25,9 C 15,5 C 16,2 C 15,9 C 0,0 C 72 % 78 % 0 % 1010,3 hPa 0,0 l/m 1,0 km/h (0 Bft) S 180 0 min 0,0 UV-I 11,3 C 15,9 C 0,0 km/h (0 Bft)
07.10.2014 22:30 16,4 C 25,9 C 15,4 C 16,2 C 15,8 C 0,0 C 72 % 78 % 0 % 1010,4 hPa 0,0 l/m 0,6 km/h (0 Bft) O 90 0 min 0,0 UV-I 11,3 C 15,8 C 0,0 km/h (0 Bft)
07.10.2014 22:35 16,4 C 25,9 C 15,5 C 16,2 C 15,9 C 0,0 C 72 % 78 % 0 % 1010,4 hPa 0,0 l/m 1,0 km/h (0 Bft) O 90 0 min 0,0 UV-I 11,3 C 15,9 C 1,9 km/h (1 Bft)
07.10.2014 22:40 16,4 C 25,9 C 15,5 C 16,3 C 16,0 C 0,0 C 72 % 78 % 0 % 1010,4 hPa 0,0 l/m 1,3 km/h (1 Bft) S-SW 202 0 min 0,0 UV-I 11,3 C 16,0 C 2,6 km/h (1 Bft)
07.10.2014 22:45 16,5 C 25,9 C 15,5 C 16,3 C 16,0 C 0,0 C 72 % 78 % 0 % 1010,4 hPa 0,0 l/m 1,4 km/h (1 Bft) S-SO 157 0 min 0,0 UV-I 11,4 C 16,0 C 2,6 km/h (1 Bft)
07.10.2014 22:50 16,7 C 25,9 C 15,6 C 16,5 C 16,2 C 0,0 C 72 % 78 % 0 % 1010,6 hPa 0,0 l/m 1,4 km/h (1 Bft) NW 315 0 min 0,0 UV-I 11,6 C 16,2 C 1,8 km/h (1 Bft)
07.10.2014 22:55 16,6 C 25,9 C 15,7 C 16,5 C 16,2 C 0,0 C 72 % 78 % 0 % 1010,6 hPa 0,0 l/m 1,3 km/h (1 Bft) SO 135 0 min 0,0 UV-I 11,5 C 16,2 C 2,1 km/h (1 Bft)
07.10.2014 23:00 16,7 C 25,9 C 15,7 C 16,6 C 16,3 C 0,0 C 72 % 78 % 0 % 1010,6 hPa 0,0 l/m 1,3 km/h (1 Bft) S-SW 202 0 min 0,0 UV-I 11,6 C 16,3 C 0,0 km/h (0 Bft)
07.10.2014 23:05 16,7 C 25,9 C 15,6 C 16,5 C 16,2 C 0,0 C 72 % 78 % 0 % 1010,6 hPa 0,0 l/m 1,1 km/h (1 Bft) NW 315 0 min 0,0 UV-I 11,6 C 16,2 C 0,0 km/h (0 Bft)
07.10.2014 23:10 16,7 C 25,9 C 15,6 C 16,5 C 16,2 C 0,0 C 72 % 78 % 0 % 1011,1 hPa 0,0 l/m 1,0 km/h (0 Bft) W 270 0 min 0,0 UV-I 11,6 C 16,2 C 0,0 km/h (0 Bft)
07.10.2014 23:15 16,6 C 25,9 C 15,6 C 16,5 C 16,2 C 0,0 C 72 % 78 % 0 % 1011,1 hPa 0,0 l/m 1,1 km/h (1 Bft) SW 225 0 min 0,0 UV-I 11,5 C 16,2 C 0,0 km/h (0 Bft)
07.10.2014 23:20 16,6 C 26,0 C 15,5 C 16,5 C 16,2 C 0,0 C 72 % 78 % 0 % 1011,1 hPa 0,0 l/m 1,0 km/h (0 Bft) N-NO 22 0 min 0,0 UV-I 11,5 C 16,2 C 4,5 km/h (1 Bft)
07.10.2014 23:25 16,7 C 26,0 C 15,5 C 16,5 C 16,2 C 0,0 C 72 % 78 % 0 % 1011,1 hPa 0,0 l/m 0,8 km/h (0 Bft) O-NO 67 0 min 0,0 UV-I 11,6 C 16,2 C 2,7 km/h (1 Bft)
07.10.2014 23:30 16,7 C 26,0 C 15,6 C 16,5 C 16,2 C 0,0 C 72 % 78 % 0 % 1011,4 hPa 0,0 l/m 1,3 km/h (1 Bft) W-SW 247 0 min 0,0 UV-I 11,6 C 16,2 C 4,8 km/h (1 Bft)
07.10.2014 23:35 16,7 C 26,0 C 15,8 C 16,6 C 16,4 C 0,0 C 71 % 77 % 0 % 1011,4 hPa 0,0 l/m 1,8 km/h (1 Bft) S 180 0 min 0,0 UV-I 11,4 C 16,4 C 4,2 km/h (1 Bft)
07.10.2014 23:40 16,8 C 26,0 C 15,9 C 16,7 C 16,6 C 0,0 C 70 % 77 % 0 % 1011,4 hPa 0,0 l/m 2,1 km/h (1 Bft) W-NW 292 0 min 0,0 UV-I 11,3 C 16,6 C 5,1 km/h (1 Bft)
07.10.2014 23:45 17,1 C 26,0 C 15,9 C 17,0 C 16,7 C 0,0 C 70 % 76 % 0 % 1011,4 hPa 0,0 l/m 2,6 km/h (1 Bft) NW 315 0 min 0,0 UV-I 11,6 C 16,7 C 8,5 km/h (2 Bft)
07.10.2014 23:50 17,1 C 26,0 C 16,0 C 17,0 C 16,9 C 0,0 C 70 % 77 % 0 % 1011,6 hPa 0,0 l/m 2,4 km/h (1 Bft) S 180 0 min 0,0 UV-I 11,6 C 16,9 C 0,0 km/h (0 Bft)
07.10.2014 23:55 17,2 C 26,0 C 16,0 C 17,1 C 16,9 C 0,0 C 70 % 76 % 0 % 1011,6 hPa 0,0 l/m 2,4 km/h (1 Bft) S-SO 157 0 min 0,0 UV-I 11,7 C 16,9 C 3,4 km/h (1 Bft)
_ Min-Zeit 02:00 09:15 02:05 01:50 01:50 16:25 14:20 14:10 00:00 15:10 - 00:00 - - - 00:00 02:00 01:50 00:00
Minimum _ 5,2 C 24,8 C 6,9 C 5,7 C 5,7 C 0,0 C 69 % 73 % 0 % 1009,8 hPa - 0,0 km/h (0 Bft) - - - 0,0 UV-I 3,5 C 5,7 C 0,0 km/h (0 Bft)
_ Max-Zeit 13:20 00:00 13:30 13:25 13:25 13:25 04:55 03:05 13:25 00:10 00:00 14:25 - - 07:30 00:00 13:15 13:25 13:45
Maximum _ 17,7 C 26,0 C 17,5 C 20,4 C 20,4 C 2,8 C 92 % 91 % 74 % 1014,2 hPa 0,0 l/m 5,0 km/h
O-NO (1 Bft)
- - 5 min 0,0 UV-I 12,7 C 20,4 C 17,1 km/h
O-SO (3 Bft)
Durchschnitt _ 12,7 C 25,5 C 12,9 C 13,5 C 13,5 C 0,8 C 81 % 84 % 16 % 1011,1 hPa #0,0 l/m 1,1 km/h (1 Bft) O-NO - #15 min. 0,0 UV-I 9,4 C 13,5 C 1,8 km/h (1 Bft)
2014 www.wetterstation-wechselburg.de